createdAt,value
2019-02-28T00:01:33.073Z,13.10
2019-02-28T00:04:00.368Z,13.00
2019-02-28T00:06:27.738Z,12.90
2019-02-28T00:08:55.027Z,12.80
2019-02-28T00:11:22.285Z,12.80
2019-02-28T00:13:52.379Z,12.70
2019-02-28T00:16:18.819Z,12.60
2019-02-28T00:18:49.494Z,12.50
2019-02-28T00:21:15.397Z,12.50
2019-02-28T00:23:42.761Z,12.50
2019-02-28T00:26:11.732Z,12.40
2019-02-28T00:28:39.261Z,12.30
2019-02-28T00:31:25.711Z,12.30
2019-02-28T00:34:05.623Z,12.20
2019-02-28T00:36:33.044Z,12.20
2019-02-28T00:39:00.709Z,12.10
2019-02-28T00:41:29.996Z,12.10
2019-02-28T00:43:57.937Z,12.10
2019-02-28T00:46:25.304Z,12.10
2019-02-28T00:48:53.952Z,12.20
2019-02-28T00:51:21.577Z,12.30
2019-02-28T00:53:48.846Z,12.40
2019-02-28T00:56:17.563Z,12.50
2019-02-28T00:58:45.296Z,12.50
2019-02-28T01:01:12.721Z,12.60
2019-02-28T01:03:40.063Z,12.50
2019-02-28T01:06:20.445Z,12.50
2019-02-28T01:08:47.891Z,12.40
2019-02-28T01:11:15.191Z,12.30
2019-02-28T01:13:42.536Z,12.10
2019-02-28T01:16:09.939Z,12.00
2019-02-28T01:18:56.739Z,12.00
2019-02-28T01:21:24.589Z,11.90
2019-02-28T01:23:52.088Z,11.80
2019-02-28T01:26:19.324Z,11.80
2019-02-28T01:28:46.626Z,11.70
2019-02-28T01:31:13.895Z,11.70
2019-02-28T01:33:42.744Z,11.60
2019-02-28T01:36:12.273Z,11.60
2019-02-28T01:38:39.247Z,11.40
2019-02-28T01:41:08.376Z,11.40
2019-02-28T01:43:35.765Z,11.40
2019-02-28T01:46:03.097Z,11.40
2019-02-28T01:48:30.469Z,11.30
2019-02-28T01:51:10.588Z,11.30
2019-02-28T01:53:38.033Z,11.30
2019-02-28T01:56:05.375Z,11.20
2019-02-28T01:58:33.809Z,11.20
2019-02-28T02:01:01.130Z,11.20
2019-02-28T02:03:28.436Z,11.30
2019-02-28T02:05:55.720Z,11.20
2019-02-28T02:08:23.033Z,11.20
2019-02-28T02:10:54.968Z,11.20
2019-02-28T02:13:21.859Z,11.10
2019-02-28T02:15:51.404Z,11.10
2019-02-28T02:18:18.321Z,11.00
2019-02-28T02:20:45.582Z,11.00
2019-02-28T02:23:17.821Z,11.00
2019-02-28T02:25:42.092Z,11.00
2019-02-28T02:28:09.398Z,10.90
2019-02-28T02:30:50.937Z,10.90
2019-02-28T02:33:32.402Z,11.00
2019-02-28T02:36:01.441Z,10.90
2019-02-28T02:38:28.704Z,10.90
2019-02-28T02:41:00.455Z,10.90
2019-02-28T02:43:26.342Z,11.00
2019-02-28T02:46:06.453Z,11.10
2019-02-28T02:48:33.794Z,11.10
2019-02-28T02:51:01.032Z,11.20
2019-02-28T02:53:28.467Z,11.10
2019-02-28T02:55:55.760Z,11.10
2019-02-28T02:58:27.988Z,11.00
2019-02-28T03:00:53.521Z,10.90
2019-02-28T03:03:20.811Z,10.90
2019-02-28T03:05:49.197Z,10.80
2019-02-28T03:08:16.508Z,10.70
2019-02-28T03:10:43.768Z,10.80
2019-02-28T03:13:11.064Z,10.80
2019-02-28T03:15:38.354Z,10.90
2019-02-28T03:18:05.689Z,11.00
2019-02-28T03:20:32.949Z,11.00
2019-02-28T03:23:01.959Z,11.00
2019-02-28T03:25:29.407Z,11.00
2019-02-28T03:27:56.933Z,11.00
2019-02-28T03:30:31.892Z,10.80
2019-02-28T03:32:53.533Z,10.70
2019-02-28T03:35:20.901Z,10.60
2019-02-28T03:38:01.322Z,10.50
2019-02-28T03:40:28.907Z,10.60
2019-02-28T03:42:56.344Z,10.40
2019-02-28T03:45:23.696Z,10.50
2019-02-28T03:47:51.010Z,10.40
2019-02-28T03:50:22.061Z,10.40
2019-02-28T03:52:47.736Z,10.50
2019-02-28T03:55:27.529Z,10.50
2019-02-28T03:57:54.873Z,10.50
2019-02-28T04:00:22.323Z,10.50
2019-02-28T04:02:57.047Z,10.50
2019-02-28T04:05:26.702Z,10.50
2019-02-28T04:07:52.816Z,10.50
2019-02-28T04:10:22.146Z,10.60
2019-02-28T04:12:47.225Z,10.60
2019-02-28T04:15:14.877Z,10.60
2019-02-28T04:17:42.262Z,10.70
2019-02-28T04:20:09.660Z,10.80
2019-02-28T04:22:37.069Z,10.70
2019-02-28T04:25:04.418Z,10.70
2019-02-28T04:27:31.712Z,10.70
2019-02-28T04:30:05.888Z,10.60
2019-02-28T04:32:28.231Z,10.60
2019-02-28T04:34:55.573Z,10.60
2019-02-28T04:37:22.921Z,10.50
2019-02-28T04:39:53.344Z,10.60
2019-02-28T04:42:20.617Z,10.60
2019-02-28T04:44:49.187Z,10.60
2019-02-28T04:47:17.164Z,10.60
2019-02-28T04:49:44.476Z,10.60
2019-02-28T04:52:12.788Z,10.70
2019-02-28T04:54:40.275Z,10.80
2019-02-28T04:57:07.548Z,10.80
2019-02-28T04:59:34.954Z,10.80
2019-02-28T05:02:02.302Z,10.80
2019-02-28T05:04:29.597Z,10.70
2019-02-28T05:06:56.877Z,10.70
2019-02-28T05:09:24.168Z,10.60
2019-02-28T05:11:51.418Z,10.70
2019-02-28T05:14:23.360Z,10.70
2019-02-28T05:16:48.989Z,10.80
2019-02-28T05:19:17.333Z,10.80
2019-02-28T05:21:44.788Z,10.80
2019-02-28T05:24:12.064Z,10.80
2019-02-28T05:26:39.381Z,10.80
2019-02-28T05:29:06.686Z,10.80
2019-02-28T05:31:34.038Z,10.80
2019-02-28T05:34:01.471Z,10.80
2019-02-28T05:36:28.759Z,10.80
2019-02-28T05:38:56.527Z,10.80
2019-02-28T05:41:24.634Z,10.80
2019-02-28T05:43:51.880Z,10.80
2019-02-28T05:46:20.257Z,10.80
2019-02-28T05:48:48.372Z,10.70
2019-02-28T05:51:15.685Z,10.60
2019-02-28T05:53:43.023Z,10.60
2019-02-28T05:56:10.289Z,10.70
2019-02-28T05:58:37.628Z,10.70
2019-02-28T06:01:05.637Z,10.70
2019-02-28T06:03:33.021Z,10.60
2019-02-28T06:06:00.260Z,10.60
2019-02-28T06:08:27.590Z,10.60
2019-02-28T06:10:56.039Z,10.60
2019-02-28T06:13:25.438Z,10.50
2019-02-28T06:15:52.701Z,10.40
2019-02-28T06:18:20.043Z,10.50
2019-02-28T06:20:50.991Z,10.60
2019-02-28T06:23:16.587Z,10.60
2019-02-28T06:25:43.913Z,10.60
2019-02-28T06:28:12.063Z,10.70
2019-02-28T06:30:41.455Z,10.70
2019-02-28T06:33:08.757Z,10.70
2019-02-28T06:35:36.070Z,10.60
2019-02-28T06:38:22.785Z,10.60
2019-02-28T06:40:50.156Z,10.60
2019-02-28T06:43:18.818Z,10.70
2019-02-28T06:45:46.848Z,10.60
2019-02-28T06:48:14.116Z,10.70
2019-02-28T06:50:41.417Z,10.70
2019-02-28T06:53:08.679Z,10.70
2019-02-28T06:55:39.585Z,10.80
2019-02-28T06:58:07.050Z,10.80
2019-02-28T07:00:34.357Z,10.90
2019-02-28T07:03:03.303Z,10.90
2019-02-28T07:05:30.822Z,10.90
2019-02-28T07:07:58.153Z,11.00
2019-02-28T07:10:25.432Z,10.90
2019-02-28T07:12:52.653Z,10.80
2019-02-28T07:15:23.721Z,10.80
2019-02-28T07:17:50.274Z,10.80
2019-02-28T07:20:17.680Z,10.70
2019-02-28T07:22:45.044Z,10.60
2019-02-28T07:25:12.787Z,10.50
2019-02-28T07:27:41.344Z,10.50
2019-02-28T07:30:11.164Z,10.50
2019-02-28T07:32:38.465Z,10.50
2019-02-28T07:35:05.796Z,10.50
2019-02-28T07:37:33.184Z,10.50
2019-02-28T07:40:00.517Z,10.50
2019-02-28T07:42:27.838Z,10.60
2019-02-28T07:44:58.030Z,10.70
2019-02-28T07:47:25.437Z,10.80
2019-02-28T07:49:53.035Z,10.90
2019-02-28T07:52:20.476Z,10.90
2019-02-28T07:54:51.552Z,10.90
2019-02-28T07:57:17.980Z,11.00
2019-02-28T07:59:46.583Z,10.90
2019-02-28T08:02:13.949Z,10.90
2019-02-28T08:04:43.598Z,10.90
2019-02-28T08:07:11.407Z,11.00
2019-02-28T08:09:40.690Z,11.00
2019-02-28T08:12:08.798Z,11.10
2019-02-28T08:14:36.125Z,11.20
2019-02-28T08:17:05.480Z,11.20
2019-02-28T08:19:33.393Z,11.20
2019-02-28T08:22:00.669Z,11.30
2019-02-28T08:24:27.972Z,11.20
2019-02-28T08:26:55.536Z,11.30
2019-02-28T08:29:22.770Z,11.30
2019-02-28T08:31:50.088Z,11.40
2019-02-28T08:34:17.425Z,11.30
2019-02-28T08:36:46.911Z,11.10
2019-02-28T08:39:16.266Z,11.20
2019-02-28T08:41:43.788Z,11.40
2019-02-28T08:44:11.220Z,11.40
2019-02-28T08:46:38.561Z,11.50
2019-02-28T08:49:07.203Z,11.60
2019-02-28T08:51:36.570Z,11.70
2019-02-28T08:54:06.000Z,11.80
2019-02-28T08:56:33.094Z,11.90
2019-02-28T08:59:01.503Z,12.00
2019-02-28T09:01:30.641Z,12.10
2019-02-28T09:03:59.846Z,12.10
2019-02-28T09:06:27.690Z,11.90
2019-02-28T09:08:56.615Z,11.90
2019-02-28T09:11:24.087Z,11.90
2019-02-28T09:13:51.368Z,12.10
2019-02-28T09:16:18.703Z,12.20
2019-02-28T09:18:48.473Z,12.30
2019-02-28T09:21:18.308Z,12.30
2019-02-28T09:23:45.077Z,12.40
2019-02-28T09:26:12.532Z,12.40
2019-02-28T09:28:44.376Z,12.50
2019-02-28T09:31:10.808Z,12.60
2019-02-28T09:33:38.089Z,12.70
2019-02-28T09:36:05.333Z,12.80
2019-02-28T09:38:33.092Z,12.80
2019-02-28T09:41:01.402Z,12.80
2019-02-28T09:43:29.738Z,12.80
2019-02-28T09:45:56.989Z,12.70
2019-02-28T09:48:24.306Z,12.70
2019-02-28T09:50:58.019Z,12.80
2019-02-28T09:53:20.759Z,12.90
2019-02-28T09:55:48.058Z,12.90
2019-02-28T09:58:15.358Z,12.90
2019-02-28T10:00:43.231Z,13.00
2019-02-28T10:03:15.500Z,13.00
2019-02-28T10:05:43.180Z,13.10
2019-02-28T10:08:10.625Z,13.30
2019-02-28T10:10:39.165Z,13.40
2019-02-28T10:13:06.430Z,13.50
2019-02-28T10:15:33.804Z,13.40
2019-02-28T10:18:04.356Z,13.50
2019-02-28T10:20:30.413Z,13.50
2019-02-28T10:22:57.709Z,13.60
2019-02-28T10:25:26.095Z,13.60
2019-02-28T10:27:54.615Z,13.50
2019-02-28T10:30:31.162Z,13.50
2019-02-28T10:32:51.735Z,13.60
2019-02-28T10:35:19.141Z,13.80
2019-02-28T10:37:46.564Z,13.90
2019-02-28T10:40:17.712Z,14.00
2019-02-28T10:42:45.556Z,14.10
2019-02-28T10:45:13.487Z,14.30
2019-02-28T10:47:40.782Z,14.50
2019-02-28T10:50:14.192Z,14.60
2019-02-28T10:52:41.490Z,14.60
2019-02-28T10:55:28.920Z,14.80
2019-02-28T10:57:56.297Z,14.80
2019-02-28T11:00:29.533Z,14.80
2019-02-28T11:02:59.193Z,14.80
2019-02-28T11:05:28.886Z,14.90
2019-02-28T11:07:56.816Z,14.90
2019-02-28T11:10:29.001Z,15.10
2019-02-28T11:12:58.329Z,15.20
2019-02-28T11:15:26.024Z,15.20
2019-02-28T11:17:53.564Z,15.20
2019-02-28T11:20:22.313Z,15.20
2019-02-28T11:22:50.348Z,15.20
2019-02-28T11:25:18.278Z,15.30
2019-02-28T11:27:45.648Z,15.20
2019-02-28T11:30:14.313Z,15.10
2019-02-28T11:32:42.014Z,15.10
2019-02-28T11:35:09.673Z,15.10
2019-02-28T11:37:38.845Z,15.20
2019-02-28T11:40:08.499Z,15.30
2019-02-28T11:42:35.968Z,15.30
2019-02-28T11:45:03.784Z,15.30
2019-02-28T11:47:31.616Z,15.20
2019-02-28T11:50:00.323Z,15.20
2019-02-28T11:52:28.169Z,15.30
2019-02-28T11:54:55.488Z,15.30
2019-02-28T11:57:22.945Z,15.30
2019-02-28T11:59:51.443Z,15.40
2019-02-28T12:02:20.256Z,15.50
2019-02-28T12:04:48.140Z,15.40
2019-02-28T12:07:15.740Z,15.40
2019-02-28T12:09:43.032Z,15.40
2019-02-28T12:12:11.164Z,15.40
2019-02-28T12:14:38.766Z,15.30
2019-02-28T12:17:06.086Z,15.40
2019-02-28T12:19:33.425Z,15.40
2019-02-28T12:22:00.823Z,15.40
2019-02-28T12:24:29.372Z,15.40
2019-02-28T12:26:57.480Z,15.40
2019-02-28T12:29:24.863Z,15.40
2019-02-28T12:31:52.323Z,15.30
2019-02-28T12:34:19.666Z,15.20
2019-02-28T12:36:49.382Z,15.20
2019-02-28T12:39:16.132Z,15.20
2019-02-28T12:41:43.456Z,15.10
2019-02-28T12:44:12.413Z,15.20
2019-02-28T12:46:43.315Z,15.30
2019-02-28T12:49:10.450Z,15.30
2019-02-28T12:51:39.721Z,15.30
2019-02-28T12:54:06.901Z,15.30
2019-02-28T12:56:34.185Z,15.30
2019-02-28T12:59:01.495Z,15.20
2019-02-28T13:01:28.800Z,15.20
2019-02-28T13:04:00.621Z,15.30
2019-02-28T13:06:25.261Z,15.40
2019-02-28T13:08:54.141Z,15.50
2019-02-28T13:11:21.424Z,15.60
2019-02-28T13:13:48.905Z,15.70
2019-02-28T13:16:17.440Z,15.60
2019-02-28T13:18:45.632Z,15.50
2019-02-28T13:21:12.931Z,15.60
2019-02-28T13:23:41.345Z,15.60
2019-02-28T13:26:08.705Z,15.60
2019-02-28T13:28:36.024Z,15.60
2019-02-28T13:31:03.424Z,15.50
2019-02-28T13:33:30.835Z,15.40
2019-02-28T13:35:58.182Z,15.40
2019-02-28T13:38:25.481Z,15.40
2019-02-28T13:40:52.812Z,15.40
2019-02-28T13:43:22.441Z,15.30
2019-02-28T13:45:50.659Z,15.20
2019-02-28T13:48:26.267Z,15.20
2019-02-28T13:50:49.319Z,15.30
2019-02-28T13:53:17.989Z,15.30
2019-02-28T13:55:46.024Z,15.10
2019-02-28T13:58:13.403Z,15.10
2019-02-28T14:00:45.564Z,15.20
2019-02-28T14:03:10.484Z,15.20
2019-02-28T14:05:40.928Z,15.10
2019-02-28T14:08:11.466Z,15.10
2019-02-28T14:10:36.416Z,15.20
2019-02-28T14:13:05.119Z,15.30
2019-02-28T14:15:37.826Z,15.40
2019-02-28T14:18:07.576Z,15.40
2019-02-28T14:20:35.821Z,15.20
2019-02-28T14:23:03.190Z,15.10
2019-02-28T14:25:30.704Z,15.00
2019-02-28T14:28:00.240Z,15.10
2019-02-28T14:30:28.799Z,15.20
2019-02-28T14:32:56.175Z,15.10
2019-02-28T14:35:23.877Z,15.10
2019-02-28T14:37:55.313Z,15.10
2019-02-28T14:40:22.308Z,15.20
2019-02-28T14:42:50.058Z,15.30
2019-02-28T14:45:18.362Z,15.30
2019-02-28T14:47:45.898Z,15.40
2019-02-28T14:50:15.398Z,15.40
2019-02-28T14:52:44.117Z,15.40
2019-02-28T14:55:13.320Z,15.30
2019-02-28T14:57:40.693Z,15.30
2019-02-28T15:00:11.492Z,15.10
2019-02-28T15:02:38.964Z,15.10
2019-02-28T15:05:08.743Z,15.20
2019-02-28T15:07:38.786Z,15.20
2019-02-28T15:10:08.743Z,15.20
2019-02-28T15:12:36.340Z,15.20
2019-02-28T15:15:05.348Z,15.20
2019-02-28T15:17:32.787Z,15.30
2019-02-28T15:20:00.363Z,15.30
2019-02-28T15:22:27.769Z,15.40
2019-02-28T15:24:55.170Z,15.50
2019-02-28T15:27:22.526Z,15.50
2019-02-28T15:29:51.195Z,15.50
2019-02-28T15:32:18.565Z,15.40
2019-02-28T15:34:45.978Z,15.40
2019-02-28T15:37:14.504Z,15.50
2019-02-28T15:39:41.798Z,15.50
2019-02-28T15:42:09.167Z,15.40
2019-02-28T15:44:36.500Z,15.40
2019-02-28T15:47:05.036Z,15.50
2019-02-28T15:49:32.344Z,15.50
2019-02-28T15:52:01.890Z,15.50
2019-02-28T15:54:28.890Z,15.50
2019-02-28T15:56:56.457Z,15.50
2019-02-28T15:59:23.906Z,15.60
2019-02-28T16:01:51.358Z,15.50
2019-02-28T16:04:18.657Z,15.50
2019-02-28T16:06:45.935Z,15.50
2019-02-28T16:09:18.765Z,15.40
2019-02-28T16:11:45.424Z,15.40
2019-02-28T16:14:14.789Z,15.40
2019-02-28T16:16:42.205Z,15.30
2019-02-28T16:19:10.759Z,15.30
2019-02-28T16:21:40.694Z,15.20
2019-02-28T16:24:07.446Z,15.10
2019-02-28T16:26:34.796Z,15.10
2019-02-28T16:29:02.124Z,15.00
2019-02-28T16:31:29.561Z,15.00
2019-02-28T16:34:04.885Z,15.00
2019-02-28T16:36:26.618Z,15.00
2019-02-28T16:38:53.959Z,14.90
2019-02-28T16:41:21.348Z,14.80
2019-02-28T16:43:48.940Z,14.80
2019-02-28T16:46:16.255Z,14.70
2019-02-28T16:48:43.759Z,14.70
2019-02-28T16:51:11.128Z,14.70
2019-02-28T16:53:38.437Z,14.60
2019-02-28T16:56:06.428Z,14.60
2019-02-28T16:58:34.034Z,14.60
2019-02-28T17:01:01.449Z,14.50
2019-02-28T17:03:28.921Z,14.60
2019-02-28T17:05:58.407Z,14.60
2019-02-28T17:08:27.885Z,14.70
2019-02-28T17:10:55.170Z,14.70
2019-02-28T17:13:28.390Z,14.60
2019-02-28T17:16:14.064Z,14.60
2019-02-28T17:18:41.556Z,14.50
2019-02-28T17:21:08.989Z,14.50
2019-02-28T17:23:36.881Z,14.40
2019-02-28T17:26:05.708Z,14.40
2019-02-28T17:28:53.177Z,14.40
2019-02-28T17:31:39.223Z,14.40
2019-02-28T17:34:06.856Z,14.30
2019-02-28T17:36:34.235Z,14.20
2019-02-28T17:39:01.698Z,14.20
2019-02-28T17:41:34.040Z,14.30
2019-02-28T17:44:10.543Z,14.20
2019-02-28T17:46:37.885Z,14.20
2019-02-28T17:49:45.554Z,14.10
2019-02-28T17:52:22.176Z,14.10
2019-02-28T17:55:36.464Z,14.00
2019-02-28T17:58:20.628Z,14.00
2019-02-28T18:01:16.834Z,14.00
2019-02-28T18:04:20.929Z,14.00
2019-02-28T18:07:15.586Z,13.90
2019-02-28T18:10:08.847Z,13.80
2019-02-28T18:13:00.380Z,13.80
2019-02-28T18:16:29.080Z,13.90
2019-02-28T18:19:42.106Z,13.90
2019-02-28T18:22:36.638Z,13.90
2019-02-28T18:26:04.396Z,13.70
2019-02-28T18:29:03.273Z,13.70
2019-02-28T18:31:30.629Z,13.60
2019-02-28T18:34:03.969Z,13.60
2019-02-28T18:36:31.907Z,13.50
2019-02-28T18:38:59.552Z,13.40
2019-02-28T18:41:28.320Z,13.40
2019-02-28T18:44:00.061Z,13.30
2019-02-28T18:46:29.496Z,13.30
2019-02-28T18:48:56.094Z,13.20
2019-02-28T18:51:23.713Z,13.20
2019-02-28T18:53:51.278Z,13.20
2019-02-28T18:56:18.918Z,13.20
2019-02-28T18:58:46.643Z,13.30
2019-02-28T19:01:14.595Z,13.40
2019-02-28T19:03:42.417Z,13.50
2019-02-28T19:06:12.683Z,13.60
2019-02-28T19:08:49.940Z,13.70
2019-02-28T19:11:20.333Z,13.80
2019-02-28T19:13:54.346Z,13.80
2019-02-28T19:16:26.082Z,13.90
2019-02-28T19:18:53.929Z,13.90
2019-02-28T19:21:22.376Z,13.90
2019-02-28T19:23:53.368Z,13.80
2019-02-28T19:26:24.835Z,13.80
2019-02-28T19:28:54.919Z,13.70
2019-02-28T19:31:22.742Z,13.60
2019-02-28T19:33:56.132Z,13.50
2019-02-28T19:36:25.646Z,13.50
2019-02-28T19:38:53.350Z,13.50
2019-02-28T19:41:20.946Z,13.50
2019-02-28T19:43:48.859Z,13.50
2019-02-28T19:46:17.819Z,13.40
2019-02-28T19:48:45.493Z,13.30
2019-02-28T19:51:13.261Z,13.20
2019-02-28T19:53:42.014Z,13.10
2019-02-28T19:56:09.534Z,12.90
2019-02-28T19:58:39.088Z,12.80
2019-02-28T20:01:07.908Z,12.60
2019-02-28T20:03:35.510Z,12.60
2019-02-28T20:06:03.222Z,12.60
2019-02-28T20:08:31.126Z,12.70
2019-02-28T20:10:59.142Z,12.60
2019-02-28T20:13:26.804Z,12.60
2019-02-28T20:15:54.519Z,12.70
2019-02-28T20:18:22.238Z,12.70
2019-02-28T20:20:49.997Z,12.70
2019-02-28T20:23:17.725Z,12.80
2019-02-28T20:25:45.603Z,12.80
2019-02-28T20:28:13.443Z,12.90
2019-02-28T20:30:42.219Z,12.80
2019-02-28T20:33:09.853Z,12.80
2019-02-28T20:35:37.639Z,12.80
2019-02-28T20:38:05.528Z,12.70
2019-02-28T20:40:35.120Z,12.70
2019-02-28T20:43:04.501Z,12.70
2019-02-28T20:45:32.362Z,12.70
2019-02-28T20:48:00.050Z,12.70
2019-02-28T20:50:30.689Z,12.70
2019-02-28T20:52:59.478Z,12.80
2019-02-28T20:55:27.219Z,12.80
2019-02-28T20:57:56.882Z,12.80
2019-02-28T21:00:26.091Z,12.80
2019-02-28T21:02:53.941Z,12.80
2019-02-28T21:05:23.117Z,12.70
2019-02-28T21:07:51.099Z,12.60
2019-02-28T21:10:18.711Z,12.50
2019-02-28T21:12:48.276Z,12.40
2019-02-28T21:15:15.974Z,12.40
2019-02-28T21:17:43.684Z,12.50
2019-02-28T21:20:12.301Z,12.60
2019-02-28T21:22:40.552Z,12.70
2019-02-28T21:25:09.721Z,12.70
2019-02-28T21:27:39.915Z,12.80
2019-02-28T21:30:11.623Z,12.80
2019-02-28T21:32:39.465Z,12.70
2019-02-28T21:35:07.122Z,12.70
2019-02-28T21:37:36.441Z,12.70
2019-02-28T21:40:06.629Z,12.70
2019-02-28T21:42:36.196Z,12.70
2019-02-28T21:45:05.213Z,12.70
2019-02-28T21:47:34.738Z,12.60
2019-02-28T21:50:04.158Z,12.60
2019-02-28T21:52:31.807Z,12.50
2019-02-28T21:54:59.462Z,12.40
2019-02-28T21:57:27.226Z,12.40
2019-02-28T21:59:54.727Z,12.30
2019-02-28T22:02:23.434Z,12.40
2019-02-28T22:04:51.013Z,12.50
2019-02-28T22:07:18.740Z,12.60
2019-02-28T22:09:48.115Z,12.70
2019-02-28T22:12:15.762Z,12.70
2019-02-28T22:14:43.484Z,12.80
2019-02-28T22:17:11.073Z,12.80
2019-02-28T22:19:38.766Z,12.90
2019-02-28T22:22:06.454Z,12.90
2019-02-28T22:24:35.416Z,13.00
2019-02-28T22:27:03.041Z,13.00
2019-02-28T22:29:31.792Z,13.00
2019-02-28T22:32:27.787Z,13.20
2019-02-28T22:35:03.408Z,13.30
2019-02-28T22:37:31.165Z,13.20
2019-02-28T22:39:58.716Z,13.10
2019-02-28T22:42:28.024Z,13.20
2019-02-28T22:44:55.592Z,13.20
2019-02-28T22:47:24.328Z,13.20
2019-02-28T22:49:51.990Z,13.10
2019-02-28T22:52:19.644Z,13.00
2019-02-28T22:54:47.212Z,13.00
2019-02-28T22:57:16.639Z,13.00
2019-02-28T22:59:44.100Z,13.00
2019-02-28T23:02:11.748Z,12.90
2019-02-28T23:04:39.331Z,12.90
2019-02-28T23:07:07.996Z,12.90
2019-02-28T23:09:37.326Z,12.90
2019-02-28T23:12:04.950Z,13.00
2019-02-28T23:14:33.826Z,13.00
2019-02-28T23:17:01.321Z,13.00
2019-02-28T23:19:28.944Z,13.00
2019-02-28T23:21:58.399Z,13.10
2019-02-28T23:24:26.154Z,13.00
2019-02-28T23:27:10.959Z,13.00
2019-02-28T23:29:41.125Z,13.00
2019-02-28T23:32:31.249Z,12.90
2019-02-28T23:34:59.046Z,12.90
2019-02-28T23:37:26.673Z,12.80
2019-02-28T23:39:54.317Z,12.80
2019-02-28T23:42:21.891Z,12.80
2019-02-28T23:44:49.370Z,12.80
2019-02-28T23:47:16.859Z,12.70
2019-02-28T23:49:44.506Z,12.80
2019-02-28T23:52:12.149Z,12.70
2019-02-28T23:54:39.683Z,12.60
2019-02-28T23:57:07.297Z,12.40
